createdAt,value
2018-11-14T00:01:44.991Z,124.00
2018-11-14T00:04:38.549Z,119.47
2018-11-14T00:07:32.119Z,115.32
2018-11-14T00:10:31.729Z,104.75
2018-11-14T00:13:26.832Z,100.70
2018-11-14T00:16:20.500Z,95.80
2018-11-14T00:19:23.750Z,90.00
2018-11-14T00:22:08.263Z,89.70
2018-11-14T00:25:03.958Z,84.97
2018-11-14T00:27:59.520Z,81.08
2018-11-14T00:30:53.573Z,76.92
2018-11-14T00:33:48.861Z,75.05
2018-11-14T00:36:42.760Z,75.30
2018-11-14T00:39:37.355Z,73.57
2018-11-14T00:42:31.335Z,70.83
2018-11-14T00:45:25.618Z,68.90
2018-11-14T00:48:27.379Z,66.72
2018-11-14T00:51:21.464Z,67.80
2018-11-14T00:54:15.636Z,64.22
2018-11-14T00:57:12.903Z,65.22
2018-11-14T01:00:07.136Z,63.58
2018-11-14T01:03:03.008Z,62.90
2018-11-14T01:05:56.787Z,63.08
2018-11-14T01:08:50.455Z,62.55
2018-11-14T01:11:44.742Z,65.75
2018-11-14T01:14:38.514Z,63.23
2018-11-14T01:17:34.986Z,65.52
2018-11-14T01:20:28.528Z,66.25
2018-11-14T01:23:22.094Z,65.87
2018-11-14T01:26:15.604Z,63.38
2018-11-14T01:29:09.432Z,65.85
2018-11-14T01:32:03.413Z,65.17
2018-11-14T01:34:57.904Z,64.30
2018-11-14T01:37:51.988Z,66.02
2018-11-14T01:40:45.861Z,66.57
2018-11-14T01:43:42.920Z,65.10
2018-11-14T01:46:38.607Z,66.17
2018-11-14T01:49:34.142Z,67.60
2018-11-14T01:52:28.123Z,64.45
2018-11-14T01:55:22.843Z,63.30
2018-11-14T01:58:18.234Z,63.17
2018-11-14T02:01:12.310Z,63.78
2018-11-14T02:04:06.393Z,65.40
2018-11-14T02:07:00.269Z,68.07
2018-11-14T02:09:54.575Z,67.75
2018-11-14T02:12:48.462Z,65.95
2018-11-14T02:15:42.105Z,64.20
2018-11-14T02:18:35.568Z,62.65
2018-11-14T02:21:29.135Z,63.20
2018-11-14T02:24:23.117Z,62.40
2018-11-14T02:27:19.245Z,63.55
2018-11-14T02:30:21.853Z,61.58
2018-11-14T02:33:15.535Z,60.70
2018-11-14T02:36:09.266Z,60.73
2018-11-14T02:39:04.277Z,59.88
2018-11-14T02:41:58.359Z,60.00
2018-11-14T02:44:54.077Z,60.23
2018-11-14T02:47:48.056Z,59.23
2018-11-14T02:50:44.628Z,61.92
2018-11-14T02:53:38.269Z,64.05
2018-11-14T02:56:32.144Z,58.87
2018-11-14T02:59:28.069Z,55.55
2018-11-14T03:02:21.956Z,55.70
2018-11-14T03:05:17.565Z,55.20
2018-11-14T03:08:11.537Z,55.78
2018-11-14T03:11:05.013Z,55.65
2018-11-14T03:13:58.587Z,50.95
2018-11-14T03:16:52.456Z,47.80
2018-11-14T03:19:46.539Z,49.35
2018-11-14T03:22:42.027Z,46.40
2018-11-14T03:25:35.603Z,49.90
2018-11-14T03:31:22.970Z,54.83
2018-11-14T03:34:16.329Z,53.70
2018-11-14T03:37:09.891Z,52.58
2018-11-14T03:40:04.793Z,54.45
2018-11-14T03:43:00.000Z,56.85
2018-11-14T03:45:53.883Z,58.30
2018-11-14T03:48:49.497Z,71.47
2018-11-14T03:51:43.577Z,59.18
2018-11-14T03:54:37.553Z,57.33
2018-11-14T03:57:31.742Z,58.42
2018-11-14T04:00:25.616Z,59.88
2018-11-14T04:03:22.361Z,56.60
2018-11-14T04:06:16.133Z,58.25
2018-11-14T04:09:15.506Z,58.92
2018-11-14T04:12:09.321Z,58.10
2018-11-14T04:15:02.882Z,57.30
2018-11-14T04:17:56.552Z,58.38
2018-11-14T04:20:50.445Z,62.98
2018-11-14T04:23:50.659Z,60.78
2018-11-14T04:26:45.148Z,60.43
2018-11-14T04:29:41.073Z,61.18
2018-11-14T04:32:35.337Z,61.68
2018-11-14T04:35:29.133Z,60.73
2018-11-14T04:38:22.616Z,56.18
2018-11-14T04:41:17.294Z,57.70
2018-11-14T04:44:12.101Z,59.73
2018-11-14T04:47:07.300Z,58.90
2018-11-14T04:50:08.499Z,58.13
2018-11-14T04:53:10.571Z,58.50
2018-11-14T04:56:18.114Z,56.75
2018-11-14T04:59:12.390Z,54.73
2018-11-14T05:02:15.073Z,51.40
2018-11-14T05:05:14.257Z,52.70
2018-11-14T05:08:14.881Z,54.10
2018-11-14T05:11:21.202Z,51.68
2018-11-14T05:18:53.118Z,53.48
2018-11-14T05:25:05.029Z,46.85
2018-11-14T05:28:05.897Z,48.35
2018-11-14T05:31:07.091Z,48.35
2018-11-14T05:34:07.015Z,49.03
2018-11-14T05:37:04.757Z,48.00
2018-11-14T05:40:05.729Z,48.95
2018-11-14T05:43:02.752Z,50.25
2018-11-14T05:46:04.252Z,51.30
2018-11-14T05:49:06.599Z,50.15
2018-11-14T05:52:02.514Z,50.10
2018-11-14T05:54:58.941Z,49.67
2018-11-14T05:58:00.316Z,48.75
2018-11-14T06:01:55.695Z,48.63
2018-11-14T06:04:55.947Z,49.90
2018-11-14T06:07:52.393Z,50.65
2018-11-14T06:10:48.716Z,49.88
2018-11-14T06:13:49.215Z,48.85
2018-11-14T06:16:50.372Z,48.40
2018-11-14T06:19:46.128Z,48.08
2018-11-14T06:22:43.686Z,46.18
2018-11-14T06:25:42.225Z,45.70
2018-11-14T06:28:39.287Z,48.00
2018-11-14T06:31:35.036Z,47.88
2018-11-14T06:34:34.651Z,47.08
2018-11-14T06:37:42.068Z,44.18
2018-11-14T06:40:35.682Z,43.30
2018-11-14T06:43:54.905Z,44.23
2018-11-14T06:46:55.717Z,45.00
2018-11-14T06:49:53.105Z,44.35
2018-11-14T06:52:50.177Z,44.45
2018-11-14T06:55:53.388Z,45.20
2018-11-14T06:59:18.947Z,43.15
2018-11-14T07:02:14.630Z,44.00
2018-11-14T07:09:10.391Z,44.85
2018-11-14T07:12:45.814Z,45.15
2018-11-14T07:15:41.545Z,46.28
2018-11-14T07:18:42.460Z,45.23
2018-11-14T07:22:01.819Z,47.23
2018-11-14T07:32:11.596Z,42.95
2018-11-14T07:35:10.793Z,40.88
2018-11-14T07:38:48.272Z,42.20
2018-11-14T07:41:56.421Z,42.83
2018-11-14T07:45:06.089Z,41.95
2018-11-14T07:48:22.882Z,42.50
2018-11-14T07:51:21.998Z,41.10
2018-11-14T07:54:18.731Z,40.65
2018-11-14T07:57:15.608Z,39.65
2018-11-14T08:00:19.655Z,39.90
2018-11-14T08:03:14.053Z,41.58
2018-11-14T08:06:08.481Z,40.20
2018-11-14T08:09:06.242Z,40.58
2018-11-14T08:12:00.945Z,39.30
2018-11-14T08:14:56.730Z,39.38
2018-11-14T08:17:55.148Z,37.83
2018-11-14T08:20:53.060Z,31.10
2018-11-14T08:23:47.933Z,30.37
2018-11-14T08:26:49.083Z,26.60
2018-11-14T08:29:40.877Z,28.12
2018-11-14T08:32:50.609Z,31.68
2018-11-14T08:35:37.878Z,32.53
2018-11-14T08:38:33.918Z,32.28
2018-11-14T08:41:30.758Z,30.10
2018-11-14T08:45:26.698Z,30.88
2018-11-14T08:48:18.860Z,30.97
2018-11-14T08:51:14.708Z,32.35
2018-11-14T08:54:09.480Z,32.15
2018-11-14T08:57:12.112Z,30.50
2018-11-14T09:00:04.155Z,30.68
2018-11-14T09:03:30.784Z,31.60
2018-11-14T09:06:29.555Z,32.78
2018-11-14T09:09:31.913Z,32.78
2018-11-14T09:12:32.857Z,33.75
2018-11-14T09:15:34.498Z,33.95
2018-11-14T09:18:36.961Z,34.43
2018-11-14T09:21:42.006Z,34.58
2018-11-14T09:24:47.827Z,35.30
2018-11-14T09:27:59.618Z,34.75
2018-11-14T09:31:01.337Z,34.15
2018-11-14T09:34:01.695Z,33.92
2018-11-14T09:37:03.348Z,34.53
2018-11-14T09:39:59.846Z,34.83
2018-11-14T09:42:59.674Z,34.73
2018-11-14T09:45:56.529Z,33.30
2018-11-14T09:48:52.910Z,34.30
2018-11-14T09:51:55.101Z,34.40
2018-11-14T09:54:50.938Z,32.42
2018-11-14T09:57:52.543Z,32.88
2018-11-14T10:01:29.371Z,32.60
2018-11-14T10:04:19.488Z,31.30
2018-11-14T10:08:19.923Z,31.27
2018-11-14T10:11:04.828Z,30.10
2018-11-14T10:14:06.100Z,30.32
2018-11-14T10:17:07.084Z,30.60
2018-11-14T10:20:03.513Z,30.92
2018-11-14T10:23:03.396Z,30.60
2018-11-14T10:25:55.055Z,29.63
2018-11-14T10:28:52.690Z,29.95
2018-11-14T10:31:50.710Z,29.90
2018-11-14T10:34:52.678Z,29.77
2018-11-14T10:37:51.852Z,29.63
2018-11-14T10:40:51.543Z,29.42
2018-11-14T10:43:51.858Z,30.68
2018-11-14T10:46:52.409Z,30.08
2018-11-14T10:49:53.975Z,30.20
2018-11-14T10:52:50.707Z,30.90
2018-11-14T10:55:51.339Z,32.55
2018-11-14T11:02:46.767Z,32.03
2018-11-14T11:05:58.993Z,32.90
2018-11-14T11:09:14.267Z,33.35
2018-11-14T11:12:34.972Z,33.35
2018-11-14T11:15:48.675Z,33.78
2018-11-14T11:18:47.435Z,34.30
2018-11-14T11:21:46.343Z,32.98
2018-11-14T11:24:46.755Z,32.48
2018-11-14T11:27:44.855Z,33.58
2018-11-14T11:30:45.232Z,32.67
2018-11-14T11:33:39.271Z,33.02
2018-11-14T11:36:33.458Z,33.02
2018-11-14T11:39:31.930Z,32.73
2018-11-14T11:42:29.528Z,32.50
2018-11-14T11:45:26.842Z,33.10
2018-11-14T11:48:24.847Z,32.28
2018-11-14T11:51:21.658Z,33.75
2018-11-14T11:54:16.048Z,34.80
2018-11-14T11:57:14.517Z,33.88
2018-11-14T12:00:16.220Z,34.30
2018-11-14T12:03:21.733Z,34.40
2018-11-14T12:06:19.500Z,35.20
2018-11-14T12:09:15.322Z,36.13
2018-11-14T12:12:13.352Z,38.42
2018-11-14T12:15:14.502Z,37.83
2018-11-14T12:18:11.496Z,37.80
2018-11-14T12:21:15.327Z,37.98
2018-11-14T12:24:15.277Z,38.75
2018-11-14T12:27:20.163Z,39.30
2018-11-14T12:30:22.224Z,40.70
2018-11-14T12:33:17.641Z,41.70
2018-11-14T12:36:16.384Z,45.63
2018-11-14T12:39:13.895Z,45.33
2018-11-14T12:42:11.991Z,49.15
2018-11-14T12:45:09.327Z,47.05
2018-11-14T12:48:07.861Z,45.00
2018-11-14T12:51:12.905Z,46.35
2018-11-14T12:54:13.295Z,46.92
2018-11-14T12:57:09.393Z,48.00
2018-11-14T13:00:11.966Z,48.20
2018-11-14T13:03:08.308Z,48.38
2018-11-14T13:06:02.509Z,48.38
2018-11-14T13:08:56.103Z,48.40
2018-11-14T13:11:52.307Z,48.85
2018-11-14T13:14:46.278Z,51.10
2018-11-14T13:17:41.802Z,52.93
2018-11-14T13:20:46.020Z,53.35
2018-11-14T13:23:40.102Z,50.92
2018-11-14T13:26:33.876Z,52.05
2018-11-14T13:29:28.982Z,51.15
2018-11-14T13:32:22.595Z,53.02
2018-11-14T13:35:17.388Z,51.68
2018-11-14T13:38:11.530Z,53.13
2018-11-14T13:41:07.160Z,54.83
2018-11-14T13:44:04.412Z,53.02
2018-11-14T13:46:58.494Z,54.25
2018-11-14T13:49:53.692Z,53.98
2018-11-14T13:52:47.373Z,52.55
2018-11-14T13:55:41.652Z,52.60
2018-11-14T13:58:35.527Z,52.93
2018-11-14T14:01:32.066Z,54.38
2018-11-14T14:04:23.891Z,57.25
2018-11-14T14:07:18.252Z,56.25
2018-11-14T14:10:14.319Z,55.50
2018-11-14T14:13:13.464Z,54.67
2018-11-14T14:16:07.551Z,54.05
2018-11-14T14:19:01.573Z,53.20
2018-11-14T14:21:55.074Z,51.55
2018-11-14T14:24:48.910Z,49.25
2018-11-14T14:27:42.582Z,49.60
2018-11-14T14:30:36.570Z,50.20
2018-11-14T14:33:30.111Z,50.08
2018-11-14T14:36:24.107Z,51.08
2018-11-14T14:39:17.992Z,51.55
2018-11-14T14:42:11.862Z,50.28
2018-11-14T14:45:05.845Z,50.17
2018-11-14T14:48:01.671Z,50.70
2018-11-14T14:50:57.288Z,53.10
2018-11-14T14:53:52.899Z,54.63
2018-11-14T14:56:48.556Z,56.28
2018-11-14T14:59:42.492Z,56.70
2018-11-14T15:02:36.472Z,58.17
2018-11-14T15:05:30.143Z,57.83
2018-11-14T15:08:25.573Z,57.23
2018-11-14T15:11:19.537Z,56.10
2018-11-14T15:14:13.576Z,54.95
2018-11-14T15:17:07.887Z,51.85
2018-11-14T15:20:01.781Z,50.25
2018-11-14T15:22:56.090Z,51.33
2018-11-14T15:25:51.783Z,54.53
2018-11-14T15:28:45.983Z,54.25
2018-11-14T15:31:40.356Z,53.13
2018-11-14T15:34:34.333Z,52.33
2018-11-14T15:37:28.543Z,52.27
2018-11-14T15:40:23.706Z,52.05
2018-11-14T15:43:20.367Z,50.03
2018-11-14T15:46:14.313Z,49.40
2018-11-14T15:49:08.013Z,49.50
2018-11-14T15:52:02.007Z,50.12
2018-11-14T15:55:01.281Z,48.02
2018-11-14T15:57:52.533Z,46.37
2018-11-14T16:00:46.398Z,48.17
2018-11-14T16:03:40.582Z,46.77
2018-11-14T16:06:34.107Z,46.90
2018-11-14T16:09:30.170Z,45.63
2018-11-14T16:12:23.902Z,46.35
2018-11-14T16:15:18.574Z,45.83
2018-11-14T16:18:13.007Z,46.23
2018-11-14T16:21:06.420Z,45.38
2018-11-14T16:24:00.570Z,44.48
2018-11-14T16:26:54.251Z,44.08
2018-11-14T16:29:50.079Z,43.98
2018-11-14T16:32:44.587Z,42.38
2018-11-14T16:35:38.379Z,41.35
2018-11-14T16:38:33.130Z,40.73
2018-11-14T16:41:27.323Z,41.25
2018-11-14T16:44:21.194Z,41.88
2018-11-14T16:47:14.760Z,42.05
2018-11-14T16:50:08.675Z,41.40
2018-11-14T16:53:02.583Z,43.28
2018-11-14T16:55:57.005Z,44.83
2018-11-14T16:58:52.622Z,43.20
2018-11-14T17:01:46.808Z,44.00
2018-11-14T17:04:42.098Z,43.83
2018-11-14T17:07:36.299Z,43.55
2018-11-14T17:10:30.687Z,43.45
2018-11-14T17:13:24.976Z,43.30
2018-11-14T17:16:21.716Z,44.67
2018-11-14T17:19:19.178Z,44.15
2018-11-14T17:22:12.876Z,43.95
2018-11-14T17:25:08.263Z,44.77
2018-11-14T17:28:03.061Z,45.05
2018-11-14T17:30:57.353Z,44.38
2018-11-14T17:33:51.220Z,44.70
2018-11-14T17:36:48.170Z,46.73
2018-11-14T17:39:42.456Z,45.67
2018-11-14T17:42:36.157Z,44.35
2018-11-14T17:45:31.845Z,44.85
2018-11-14T17:48:27.158Z,44.18
2018-11-14T17:51:20.942Z,45.63
2018-11-14T17:54:14.708Z,46.08
2018-11-14T17:57:08.580Z,44.55
2018-11-14T18:00:01.921Z,43.45
2018-11-14T18:02:55.432Z,44.38
2018-11-14T18:05:49.184Z,42.67
2018-11-14T18:08:44.289Z,42.60
2018-11-14T18:11:39.396Z,42.58
2018-11-14T18:14:33.416Z,42.10
2018-11-14T18:17:26.994Z,42.23
2018-11-14T18:20:22.105Z,43.63
2018-11-14T18:23:15.841Z,42.08
2018-11-14T18:26:09.809Z,43.15
2018-11-14T18:29:03.457Z,43.68
2018-11-14T18:31:59.918Z,42.05
2018-11-14T18:34:54.401Z,42.67
2018-11-14T18:37:48.669Z,42.90
2018-11-14T18:40:44.977Z,41.20
2018-11-14T18:43:39.000Z,44.60
2018-11-14T18:46:35.861Z,43.35
2018-11-14T18:49:31.983Z,42.58
2018-11-14T18:52:31.495Z,42.43
2018-11-14T18:55:23.003Z,41.58
2018-11-14T18:58:16.432Z,40.05
2018-11-14T19:01:10.041Z,39.20
2018-11-14T19:04:04.531Z,38.73
2018-11-14T19:06:58.283Z,39.80
2018-11-14T19:09:51.671Z,39.30
2018-11-14T19:12:46.138Z,39.88
2018-11-14T19:15:41.368Z,39.23
2018-11-14T19:18:41.324Z,40.15
2018-11-14T19:21:34.852Z,38.30
2018-11-14T19:24:28.661Z,39.98
2018-11-14T19:27:24.351Z,39.83
2018-11-14T19:30:22.351Z,39.65
2018-11-14T19:33:15.791Z,38.78
2018-11-14T19:36:14.210Z,38.15
2018-11-14T19:39:10.299Z,39.33
2018-11-14T19:42:04.381Z,38.58
2018-11-14T19:44:58.358Z,40.33
2018-11-14T19:47:51.640Z,38.80
2018-11-14T19:50:45.710Z,40.12
2018-11-14T19:53:39.619Z,39.75
2018-11-14T19:56:33.455Z,38.53
2018-11-14T19:59:27.747Z,38.70
2018-11-14T20:02:21.234Z,39.85
2018-11-14T20:05:16.722Z,39.40
2018-11-14T20:08:11.015Z,39.20
2018-11-14T20:11:04.993Z,38.63
2018-11-14T20:13:58.981Z,39.20
2018-11-14T20:16:52.239Z,39.33
2018-11-14T20:19:47.653Z,39.88
2018-11-14T20:22:41.728Z,39.63
2018-11-14T20:25:35.841Z,40.65
2018-11-14T20:28:30.190Z,40.17
2018-11-14T20:31:25.722Z,42.20
2018-11-14T20:34:19.514Z,41.58
2018-11-14T20:37:13.427Z,45.10
2018-11-14T20:40:07.141Z,45.88
2018-11-14T20:43:01.398Z,43.33
2018-11-14T20:45:55.023Z,44.03
2018-11-14T20:48:52.034Z,43.60
2018-11-14T20:51:46.014Z,41.83
2018-11-14T20:54:39.735Z,43.33
2018-11-14T20:57:33.256Z,43.92
2018-11-14T21:00:36.575Z,44.73
2018-11-14T21:03:34.421Z,46.98
2018-11-14T21:06:35.875Z,49.30
2018-11-14T21:09:29.794Z,51.15
2018-11-14T21:12:24.138Z,50.83
2018-11-14T21:15:20.571Z,48.78
2018-11-14T21:18:15.613Z,47.35
2018-11-14T21:21:12.322Z,44.05
2018-11-14T21:24:06.311Z,43.52
2018-11-14T21:27:00.181Z,43.35
2018-11-14T21:29:54.165Z,42.80
2018-11-14T21:32:48.033Z,43.33
2018-11-14T21:35:44.797Z,42.93
2018-11-14T21:38:38.338Z,42.23
2018-11-14T21:41:32.940Z,41.30
2018-11-14T21:44:26.915Z,40.92
2018-11-14T21:47:37.184Z,42.23
2018-11-14T21:50:31.878Z,42.73
2018-11-14T21:53:27.058Z,42.53
2018-11-14T21:56:21.367Z,41.68
2018-11-14T21:59:14.935Z,41.42
2018-11-14T22:02:10.261Z,41.63
2018-11-14T22:05:04.238Z,41.28
2018-11-14T22:07:58.005Z,41.83
2018-11-14T22:10:51.771Z,41.33
2018-11-14T22:13:45.549Z,40.28
2018-11-14T22:16:39.320Z,40.67
2018-11-14T22:19:32.874Z,40.17
2018-11-14T22:22:26.795Z,39.92
2018-11-14T22:25:27.270Z,39.13
2018-11-14T22:28:20.868Z,39.78
2018-11-14T22:31:16.900Z,40.10
2018-11-14T22:34:10.782Z,39.85
2018-11-14T22:37:06.283Z,41.92
2018-11-14T22:39:59.958Z,42.33
2018-11-14T22:42:54.860Z,43.92
2018-11-14T22:45:49.145Z,47.60
2018-11-14T22:48:42.637Z,48.75
2018-11-14T22:51:40.177Z,52.80
2018-11-14T22:54:33.751Z,60.10
2018-11-14T22:57:27.541Z,73.87
2018-11-14T23:00:50.102Z,86.28
2018-11-14T23:03:43.952Z,99.85
2018-11-14T23:06:37.628Z,107.10
2018-11-14T23:09:31.596Z,117.82
2018-11-14T23:12:25.583Z,124.35
2018-11-14T23:15:21.160Z,129.30
2018-11-14T23:18:15.683Z,129.07
2018-11-14T23:21:09.669Z,128.50
2018-11-14T23:24:04.457Z,127.40
2018-11-14T23:26:58.130Z,128.95
2018-11-14T23:29:52.214Z,125.55
2018-11-14T23:32:54.216Z,122.82
2018-11-14T23:35:48.063Z,108.03
2018-11-14T23:38:41.620Z,108.07
2018-11-14T23:41:35.600Z,104.38
2018-11-14T23:44:30.293Z,100.67
2018-11-14T23:47:24.376Z,96.28
2018-11-14T23:50:19.622Z,96.42
2018-11-14T23:53:16.736Z,97.12
2018-11-14T23:56:10.819Z,101.72
2018-11-14T23:59:04.795Z,104.50
